sensor_id;sensor_type;location;lat;lon;timestamp;temperature;humidity
65637;DHT22;52327;42.622;23.316;2023-06-24T00:02:21;20.39;74.15
65637;DHT22;52327;42.622;23.316;2023-06-24T00:04:50;20.37;74.57
65637;DHT22;52327;42.622;23.316;2023-06-24T00:07:16;20.55;74.04
65637;DHT22;52327;42.622;23.316;2023-06-24T00:09:41;20.68;73.41
65637;DHT22;52327;42.622;23.316;2023-06-24T00:12:07;20.33;74.64
65637;DHT22;52327;42.622;23.316;2023-06-24T00:14:33;20.26;74.87
65637;DHT22;52327;42.622;23.316;2023-06-24T00:16:58;20.55;73.95
65637;DHT22;52327;42.622;23.316;2023-06-24T00:19:26;20.51;73.45
65637;DHT22;52327;42.622;23.316;2023-06-24T00:21:52;20.22;74.64
65637;DHT22;52327;42.622;23.316;2023-06-24T00:24:21;19.99;75.61
65637;DHT22;52327;42.622;23.316;2023-06-24T00:26:54;20.22;74.65
65637;DHT22;52327;42.622;23.316;2023-06-24T00:29:22;20.30;74.46
65637;DHT22;52327;42.622;23.316;2023-06-24T00:31:47;20.12;75.25
65637;DHT22;52327;42.622;23.316;2023-06-24T00:34:13;19.97;75.79
65637;DHT22;52327;42.622;23.316;2023-06-24T00:36:39;20.05;75.55
65637;DHT22;52327;42.622;23.316;2023-06-24T00:39:05;20.27;74.69
65637;DHT22;52327;42.622;23.316;2023-06-24T00:41:32;20.43;74.33
65637;DHT22;52327;42.622;23.316;2023-06-24T00:43:58;20.27;74.78
65637;DHT22;52327;42.622;23.316;2023-06-24T00:46:25;20.00;75.66
65637;DHT22;52327;42.622;23.316;2023-06-24T00:49:02;19.49;77.64
65637;DHT22;52327;42.622;23.316;2023-06-24T00:51:28;19.36;78.21
65637;DHT22;52327;42.622;23.316;2023-06-24T00:53:57;19.41;78.26
65637;DHT22;52327;42.622;23.316;2023-06-24T00:56:30;19.44;78.24
65637;DHT22;52327;42.622;23.316;2023-06-24T00:58:58;19.51;77.84
65637;DHT22;52327;42.622;23.316;2023-06-24T01:01:28;19.45;78.19
65637;DHT22;52327;42.622;23.316;2023-06-24T01:03:57;19.41;78.38
65637;DHT22;52327;42.622;23.316;2023-06-24T01:06:23;19.45;78.40
65637;DHT22;52327;42.622;23.316;2023-06-24T01:08:48;19.44;78.53
65637;DHT22;52327;42.622;23.316;2023-06-24T01:11:16;19.45;78.23
65637;DHT22;52327;42.622;23.316;2023-06-24T01:13:42;19.25;78.76
65637;DHT22;52327;42.622;23.316;2023-06-24T01:16:11;19.24;79.13
65637;DHT22;52327;42.622;23.316;2023-06-24T01:18:47;19.22;79.28
65637;DHT22;52327;42.622;23.316;2023-06-24T01:21:33;19.24;79.40
65637;DHT22;52327;42.622;23.316;2023-06-24T01:24:31;19.63;77.93
65637;DHT22;52327;42.622;23.316;2023-06-24T01:31:06;19.38;78.78
65637;DHT22;52327;42.622;23.316;2023-06-24T01:33:41;19.47;78.47
65637;DHT22;52327;42.622;23.316;2023-06-24T01:36:09;19.21;79.21
65637;DHT22;52327;42.622;23.316;2023-06-24T01:38:43;19.12;79.64
65637;DHT22;52327;42.622;23.316;2023-06-24T01:41:13;18.99;80.28
65637;DHT22;52327;42.622;23.316;2023-06-24T01:43:42;19.30;78.91
65637;DHT22;52327;42.622;23.316;2023-06-24T01:46:09;19.63;77.58
65637;DHT22;52327;42.622;23.316;2023-06-24T01:48:37;19.55;77.79
65637;DHT22;52327;42.622;23.316;2023-06-24T01:51:15;19.62;77.32
65637;DHT22;52327;42.622;23.316;2023-06-24T01:53:48;19.61;77.68
65637;DHT22;52327;42.622;23.316;2023-06-24T01:56:14;19.57;77.93
65637;DHT22;52327;42.622;23.316;2023-06-24T01:58:42;19.65;77.51
65637;DHT22;52327;42.622;23.316;2023-06-24T02:01:09;19.82;76.81
65637;DHT22;52327;42.622;23.316;2023-06-24T02:03:35;20.02;75.92
65637;DHT22;52327;42.622;23.316;2023-06-24T02:06:02;20.02;75.91
65637;DHT22;52327;42.622;23.316;2023-06-24T02:08:33;20.00;75.93
65637;DHT22;52327;42.622;23.316;2023-06-24T02:11:00;19.97;75.93
65637;DHT22;52327;42.622;23.316;2023-06-24T02:13:28;19.78;76.83
65637;DHT22;52327;42.622;23.316;2023-06-24T02:15:57;19.48;77.87
65637;DHT22;52327;42.622;23.316;2023-06-24T02:18:26;19.01;79.56
65637;DHT22;52327;42.622;23.316;2023-06-24T02:20:53;19.01;79.78
65637;DHT22;52327;42.622;23.316;2023-06-24T02:23:19;18.87;80.01
65637;DHT22;52327;42.622;23.316;2023-06-24T02:25:46;18.79;80.53
65637;DHT22;52327;42.622;23.316;2023-06-24T02:28:14;18.80;80.44
65637;DHT22;52327;42.622;23.316;2023-06-24T02:30:42;18.80;80.64
65637;DHT22;52327;42.622;23.316;2023-06-24T02:33:08;18.83;79.98
65637;DHT22;52327;42.622;23.316;2023-06-24T02:35:34;19.01;79.37
65637;DHT22;52327;42.622;23.316;2023-06-24T02:38:00;19.14;78.88
65637;DHT22;52327;42.622;23.316;2023-06-24T02:40:26;19.31;78.34
65637;DHT22;52327;42.622;23.316;2023-06-24T02:42:52;19.34;78.04
65637;DHT22;52327;42.622;23.316;2023-06-24T02:45:18;19.27;78.28
65637;DHT22;52327;42.622;23.316;2023-06-24T02:47:45;19.30;78.20
65637;DHT22;52327;42.622;23.316;2023-06-24T02:50:12;19.24;78.62
65637;DHT22;52327;42.622;23.316;2023-06-24T02:52:38;19.45;77.95
65637;DHT22;52327;42.622;23.316;2023-06-24T02:55:04;19.69;76.80
65637;DHT22;52327;42.622;23.316;2023-06-24T02:57:31;19.45;77.95
65637;DHT22;52327;42.622;23.316;2023-06-24T02:59:57;19.21;78.77
65637;DHT22;52327;42.622;23.316;2023-06-24T03:02:23;19.06;79.27
65637;DHT22;52327;42.622;23.316;2023-06-24T03:04:50;19.06;79.40
65637;DHT22;52327;42.622;23.316;2023-06-24T03:07:17;18.94;79.95
65637;DHT22;52327;42.622;23.316;2023-06-24T03:09:46;18.94;80.11
65637;DHT22;52327;42.622;23.316;2023-06-24T03:12:14;19.15;79.48
65637;DHT22;52327;42.622;23.316;2023-06-24T03:14:40;19.22;79.39
65637;DHT22;52327;42.622;23.316;2023-06-24T03:17:05;19.36;78.80
65637;DHT22;52327;42.622;23.316;2023-06-24T03:19:31;19.59;77.77
65637;DHT22;52327;42.622;23.316;2023-06-24T03:21:56;19.73;77.52
65637;DHT22;52327;42.622;23.316;2023-06-24T03:24:22;19.52;78.16
65637;DHT22;52327;42.622;23.316;2023-06-24T03:26:47;19.42;78.70
65637;DHT22;52327;42.622;23.316;2023-06-24T03:29:13;19.25;79.40
65637;DHT22;52327;42.622;23.316;2023-06-24T03:31:39;19.21;79.83
65637;DHT22;52327;42.622;23.316;2023-06-24T03:34:10;19.35;79.46
65637;DHT22;52327;42.622;23.316;2023-06-24T03:36:35;19.42;79.27
65637;DHT22;52327;42.622;23.316;2023-06-24T03:39:06;19.55;78.82
65637;DHT22;52327;42.622;23.316;2023-06-24T03:41:32;19.59;79.01
65637;DHT22;52327;42.622;23.316;2023-06-24T03:43:57;19.78;78.89
65637;DHT22;52327;42.622;23.316;2023-06-24T03:46:23;20.24;77.10
65637;DHT22;52327;42.622;23.316;2023-06-24T03:48:50;20.47;76.80
65637;DHT22;52327;42.622;23.316;2023-06-24T03:51:15;20.61;76.46
65637;DHT22;52327;42.622;23.316;2023-06-24T03:53:41;20.71;76.13
65637;DHT22;52327;42.622;23.316;2023-06-24T03:56:06;20.85;75.72
65637;DHT22;52327;42.622;23.316;2023-06-24T03:58:32;20.94;75.43
65637;DHT22;52327;42.622;23.316;2023-06-24T04:00:59;20.99;75.20
65637;DHT22;52327;42.622;23.316;2023-06-24T04:03:25;21.18;74.88
65637;DHT22;52327;42.622;23.316;2023-06-24T04:05:53;21.19;74.65
65637;DHT22;52327;42.622;23.316;2023-06-24T04:08:18;21.21;73.85
65637;DHT22;52327;42.622;23.316;2023-06-24T04:10:44;21.26;73.63
65637;DHT22;52327;42.622;23.316;2023-06-24T04:13:09;21.29;73.17
65637;DHT22;52327;42.622;23.316;2023-06-24T04:15:35;21.32;73.21
65637;DHT22;52327;42.622;23.316;2023-06-24T04:18:01;21.38;73.08
65637;DHT22;52327;42.622;23.316;2023-06-24T04:20:26;21.45;73.09
65637;DHT22;52327;42.622;23.316;2023-06-24T04:22:52;21.55;72.91
65637;DHT22;52327;42.622;23.316;2023-06-24T04:25:17;21.73;72.50
65637;DHT22;52327;42.622;23.316;2023-06-24T04:27:43;21.84;72.04
65637;DHT22;52327;42.622;23.316;2023-06-24T04:30:08;21.83;71.82
65637;DHT22;52327;42.622;23.316;2023-06-24T04:32:34;22.00;71.70
65637;DHT22;52327;42.622;23.316;2023-06-24T04:35:00;22.04;71.71
65637;DHT22;52327;42.622;23.316;2023-06-24T04:37:26;22.04;71.97
65637;DHT22;52327;42.622;23.316;2023-06-24T04:39:51;22.10;72.09
65637;DHT22;52327;42.622;23.316;2023-06-24T04:42:17;22.18;72.04
65637;DHT22;52327;42.622;23.316;2023-06-24T04:44:42;22.18;72.08
65637;DHT22;52327;42.622;23.316;2023-06-24T04:47:08;22.30;72.23
65637;DHT22;52327;42.622;23.316;2023-06-24T04:49:33;22.35;71.83
65637;DHT22;52327;42.622;23.316;2023-06-24T04:52:02;22.49;71.65
65637;DHT22;52327;42.622;23.316;2023-06-24T04:54:28;22.55;71.65
65637;DHT22;52327;42.622;23.316;2023-06-24T04:56:53;22.66;71.72
65637;DHT22;52327;42.622;23.316;2023-06-24T04:59:23;22.71;70.80
65637;DHT22;52327;42.622;23.316;2023-06-24T05:01:49;22.75;70.45
65637;DHT22;52327;42.622;23.316;2023-06-24T05:04:14;22.91;69.65
65637;DHT22;52327;42.622;23.316;2023-06-24T05:06:40;22.95;69.72
65637;DHT22;52327;42.622;23.316;2023-06-24T05:09:05;23.00;69.78
65637;DHT22;52327;42.622;23.316;2023-06-24T05:11:31;23.03;69.65
65637;DHT22;52327;42.622;23.316;2023-06-24T05:13:56;23.09;69.34
65637;DHT22;52327;42.622;23.316;2023-06-24T05:16:23;23.07;69.59
65637;DHT22;52327;42.622;23.316;2023-06-24T05:18:49;23.20;69.06
65637;DHT22;52327;42.622;23.316;2023-06-24T05:21:15;23.29;68.32
65637;DHT22;52327;42.622;23.316;2023-06-24T05:23:40;23.26;68.86
65637;DHT22;52327;42.622;23.316;2023-06-24T05:26:06;23.31;68.03
65637;DHT22;52327;42.622;23.316;2023-06-24T05:28:31;23.24;67.67
65637;DHT22;52327;42.622;23.316;2023-06-24T05:30:57;23.22;68.31
65637;DHT22;52327;42.622;23.316;2023-06-24T05:33:23;23.26;68.60
65637;DHT22;52327;42.622;23.316;2023-06-24T05:35:48;23.31;68.07
65637;DHT22;52327;42.622;23.316;2023-06-24T05:38:14;23.36;68.16
65637;DHT22;52327;42.622;23.316;2023-06-24T05:40:40;23.40;67.90
65637;DHT22;52327;42.622;23.316;2023-06-24T05:43:05;23.34;68.74
65637;DHT22;52327;42.622;23.316;2023-06-24T05:45:31;23.47;68.13
65637;DHT22;52327;42.622;23.316;2023-06-24T05:47:56;23.49;68.19
65637;DHT22;52327;42.622;23.316;2023-06-24T05:50:22;23.64;67.52
65637;DHT22;52327;42.622;23.316;2023-06-24T05:52:47;23.74;67.47
65637;DHT22;52327;42.622;23.316;2023-06-24T05:55:13;23.70;67.41
65637;DHT22;52327;42.622;23.316;2023-06-24T05:57:39;23.82;67.26
65637;DHT22;52327;42.622;23.316;2023-06-24T06:00:05;23.71;67.97
65637;DHT22;52327;42.622;23.316;2023-06-24T06:02:31;23.74;67.46
65637;DHT22;52327;42.622;23.316;2023-06-24T06:04:57;23.93;67.71
65637;DHT22;52327;42.622;23.316;2023-06-24T06:07:23;23.97;67.01
65637;DHT22;52327;42.622;23.316;2023-06-24T06:09:48;24.01;67.58
65637;DHT22;52327;42.622;23.316;2023-06-24T06:12:14;24.09;67.33
65637;DHT22;52327;42.622;23.316;2023-06-24T06:14:39;24.11;66.97
65637;DHT22;52327;42.622;23.316;2023-06-24T06:17:05;24.02;66.71
65637;DHT22;52327;42.622;23.316;2023-06-24T06:19:30;24.07;66.87
65637;DHT22;52327;42.622;23.316;2023-06-24T06:21:56;24.15;66.24
65637;DHT22;52327;42.622;23.316;2023-06-24T06:24:21;24.14;66.61
65637;DHT22;52327;42.622;23.316;2023-06-24T06:26:46;24.11;66.66
65637;DHT22;52327;42.622;23.316;2023-06-24T06:29:12;24.21;66.07
65637;DHT22;52327;42.622;23.316;2023-06-24T06:31:37;24.15;66.68
65637;DHT22;52327;42.622;23.316;2023-06-24T06:34:03;24.19;67.08
65637;DHT22;52327;42.622;23.316;2023-06-24T06:36:29;24.36;66.37
65637;DHT22;52327;42.622;23.316;2023-06-24T06:38:54;24.51;66.07
65637;DHT22;52327;42.622;23.316;2023-06-24T06:41:20;24.58;64.94
65637;DHT22;52327;42.622;23.316;2023-06-24T06:43:52;24.25;66.89
65637;DHT22;52327;42.622;23.316;2023-06-24T06:46:17;24.29;66.17
65637;DHT22;52327;42.622;23.316;2023-06-24T06:48:43;24.08;66.61
65637;DHT22;52327;42.622;23.316;2023-06-24T06:51:08;24.12;65.85
65637;DHT22;52327;42.622;23.316;2023-06-24T06:53:34;24.28;65.99
65637;DHT22;52327;42.622;23.316;2023-06-24T06:55:59;24.51;65.70
65637;DHT22;52327;42.622;23.316;2023-06-24T06:58:25;24.63;65.47
65637;DHT22;52327;42.622;23.316;2023-06-24T07:00:50;24.82;64.54
65637;DHT22;52327;42.622;23.316;2023-06-24T07:03:16;24.93;63.99
65637;DHT22;52327;42.622;23.316;2023-06-24T07:05:41;24.89;64.77
65637;DHT22;52327;42.622;23.316;2023-06-24T07:08:07;24.96;64.67
65637;DHT22;52327;42.622;23.316;2023-06-24T07:10:32;25.00;64.04
65637;DHT22;52327;42.622;23.316;2023-06-24T07:12:58;25.06;62.91
65637;DHT22;52327;42.622;23.316;2023-06-24T07:15:25;25.10;63.78
65637;DHT22;52327;42.622;23.316;2023-06-24T07:17:51;25.30;63.63
65637;DHT22;52327;42.622;23.316;2023-06-24T07:20:17;25.33;62.49
65637;DHT22;52327;42.622;23.316;2023-06-24T07:22:43;25.37;63.24
65637;DHT22;52327;42.622;23.316;2023-06-24T07:25:09;25.31;63.59
65637;DHT22;52327;42.622;23.316;2023-06-24T07:27:34;25.40;63.22
65637;DHT22;52327;42.622;23.316;2023-06-24T07:30:00;25.40;62.44
65637;DHT22;52327;42.622;23.316;2023-06-24T07:32:25;25.48;62.95
65637;DHT22;52327;42.622;23.316;2023-06-24T07:34:51;25.60;62.96
65637;DHT22;52327;42.622;23.316;2023-06-24T07:37:16;25.54;62.39
65637;DHT22;52327;42.622;23.316;2023-06-24T07:39:42;25.77;62.23
65637;DHT22;52327;42.622;23.316;2023-06-24T07:42:07;25.84;61.65
65637;DHT22;52327;42.622;23.316;2023-06-24T07:44:33;25.80;62.18
65637;DHT22;52327;42.622;23.316;2023-06-24T07:46:58;25.80;62.57
65637;DHT22;52327;42.622;23.316;2023-06-24T07:49:24;25.78;62.56
65637;DHT22;52327;42.622;23.316;2023-06-24T07:51:49;25.93;62.14
65637;DHT22;52327;42.622;23.316;2023-06-24T07:54:15;26.08;61.30
65637;DHT22;52327;42.622;23.316;2023-06-24T07:56:40;26.13;61.54
65637;DHT22;52327;42.622;23.316;2023-06-24T07:59:06;26.30;61.99
65637;DHT22;52327;42.622;23.316;2023-06-24T08:01:31;26.42;61.01
65637;DHT22;52327;42.622;23.316;2023-06-24T08:03:57;26.57;60.37
65637;DHT22;52327;42.622;23.316;2023-06-24T08:06:22;26.80;59.75
65637;DHT22;52327;42.622;23.316;2023-06-24T08:08:47;26.65;59.38
65637;DHT22;52327;42.622;23.316;2023-06-24T08:11:13;26.42;60.48
65637;DHT22;52327;42.622;23.316;2023-06-24T08:13:39;26.50;61.12
65637;DHT22;52327;42.622;23.316;2023-06-24T08:16:04;26.59;60.30
65637;DHT22;52327;42.622;23.316;2023-06-24T08:18:30;26.33;60.75
65637;DHT22;52327;42.622;23.316;2023-06-24T08:20:56;26.35;60.40
65637;DHT22;52327;42.622;23.316;2023-06-24T08:23:21;26.33;60.38
65637;DHT22;52327;42.622;23.316;2023-06-24T08:25:46;26.22;61.04
65637;DHT22;52327;42.622;23.316;2023-06-24T08:28:12;26.02;60.70
65637;DHT22;52327;42.622;23.316;2023-06-24T08:30:37;26.16;61.93
65637;DHT22;52327;42.622;23.316;2023-06-24T08:33:03;26.47;61.26
65637;DHT22;52327;42.622;23.316;2023-06-24T08:35:28;26.61;58.85
65637;DHT22;52327;42.622;23.316;2023-06-24T08:37:54;26.84;60.08
65637;DHT22;52327;42.622;23.316;2023-06-24T08:40:19;27.03;60.19
65637;DHT22;52327;42.622;23.316;2023-06-24T08:42:45;27.16;58.89
65637;DHT22;52327;42.622;23.316;2023-06-24T08:45:10;27.04;58.12
65637;DHT22;52327;42.622;23.316;2023-06-24T08:47:36;27.08;59.31
65637;DHT22;52327;42.622;23.316;2023-06-24T08:50:04;26.93;61.16
65637;DHT22;52327;42.622;23.316;2023-06-24T08:52:33;27.00;59.19
65637;DHT22;52327;42.622;23.316;2023-06-24T08:55:01;27.04;60.00
65637;DHT22;52327;42.622;23.316;2023-06-24T08:57:27;27.07;59.54
65637;DHT22;52327;42.622;23.316;2023-06-24T08:59:52;27.32;59.19
65637;DHT22;52327;42.622;23.316;2023-06-24T09:02:19;27.51;58.73
65637;DHT22;52327;42.622;23.316;2023-06-24T09:04:44;27.69;58.14
65637;DHT22;52327;42.622;23.316;2023-06-24T09:07:09;27.90;58.25
65637;DHT22;52327;42.622;23.316;2023-06-24T09:09:44;28.05;56.82
65637;DHT22;52327;42.622;23.316;2023-06-24T09:12:12;28.07;56.91
65637;DHT22;52327;42.622;23.316;2023-06-24T09:14:39;28.03;55.72
65637;DHT22;52327;42.622;23.316;2023-06-24T09:17:06;28.03;56.62
65637;DHT22;52327;42.622;23.316;2023-06-24T09:19:32;28.09;55.26
65637;DHT22;52327;42.622;23.316;2023-06-24T09:22:02;28.24;55.61
65637;DHT22;52327;42.622;23.316;2023-06-24T09:24:36;28.30;54.46
65637;DHT22;52327;42.622;23.316;2023-06-24T09:27:03;28.02;56.42
65637;DHT22;52327;42.622;23.316;2023-06-24T09:29:32;28.12;56.96
65637;DHT22;52327;42.622;23.316;2023-06-24T09:31:57;28.33;56.84
65637;DHT22;52327;42.622;23.316;2023-06-24T09:34:25;28.55;55.72
65637;DHT22;52327;42.622;23.316;2023-06-24T09:36:56;28.79;55.54
65637;DHT22;52327;42.622;23.316;2023-06-24T09:39:22;28.69;53.95
65637;DHT22;52327;42.622;23.316;2023-06-24T09:41:54;28.87;53.84
65637;DHT22;52327;42.622;23.316;2023-06-24T09:44:20;28.75;53.83
65637;DHT22;52327;42.622;23.316;2023-06-24T09:46:46;28.78;54.01
65637;DHT22;52327;42.622;23.316;2023-06-24T09:49:11;28.75;52.38
65637;DHT22;52327;42.622;23.316;2023-06-24T09:51:39;28.85;52.74
65637;DHT22;52327;42.622;23.316;2023-06-24T09:54:09;28.81;49.67
65637;DHT22;52327;42.622;23.316;2023-06-24T09:56:42;28.85;50.48
65637;DHT22;52327;42.622;23.316;2023-06-24T09:59:09;28.96;53.04
65637;DHT22;52327;42.622;23.316;2023-06-24T10:01:41;28.57;53.49
65637;DHT22;52327;42.622;23.316;2023-06-24T10:07:18;28.87;52.54
65637;DHT22;52327;42.622;23.316;2023-06-24T10:20:32;29.70;50.88
65637;DHT22;52327;42.622;23.316;2023-06-24T10:30:24;29.74;49.03
65637;DHT22;52327;42.622;23.316;2023-06-24T10:33:15;29.65;48.09
65637;DHT22;52327;42.622;23.316;2023-06-24T10:36:00;29.55;49.80
65637;DHT22;52327;42.622;23.316;2023-06-24T10:38:25;29.76;49.33
65637;DHT22;52327;42.622;23.316;2023-06-24T10:40:51;29.84;48.03
65637;DHT22;52327;42.622;23.316;2023-06-24T10:43:31;29.80;48.54
65637;DHT22;52327;42.622;23.316;2023-06-24T10:46:00;29.88;48.96
65637;DHT22;52327;42.622;23.316;2023-06-24T10:48:51;29.80;49.78
65637;DHT22;52327;42.622;23.316;2023-06-24T10:51:17;30.10;48.93
65637;DHT22;52327;42.622;23.316;2023-06-24T10:54:03;30.17;48.20
65637;DHT22;52327;42.622;23.316;2023-06-24T10:59:50;30.49;48.07
65637;DHT22;52327;42.622;23.316;2023-06-24T11:02:18;30.69;46.41
65637;DHT22;52327;42.622;23.316;2023-06-24T11:04:56;30.79;45.33
65637;DHT22;52327;42.622;23.316;2023-06-24T11:07:27;30.93;45.19
65637;DHT22;52327;42.622;23.316;2023-06-24T11:09:58;31.12;45.43
65637;DHT22;52327;42.622;23.316;2023-06-24T11:12:30;31.46;45.43
65637;DHT22;52327;42.622;23.316;2023-06-24T11:15:09;31.73;44.98
65637;DHT22;52327;42.622;23.316;2023-06-24T11:17:45;31.70;41.82
65637;DHT22;52327;42.622;23.316;2023-06-24T11:20:16;31.66;41.49
65637;DHT22;52327;42.622;23.316;2023-06-24T11:22:43;31.80;42.10
65637;DHT22;52327;42.622;23.316;2023-06-24T11:25:21;32.14;40.87
65637;DHT22;52327;42.622;23.316;2023-06-24T11:27:49;32.33;40.66
65637;DHT22;52327;42.622;23.316;2023-06-24T11:30:16;32.42;41.96
65637;DHT22;52327;42.622;23.316;2023-06-24T11:32:44;32.48;40.35
65637;DHT22;52327;42.622;23.316;2023-06-24T11:35:15;32.10;41.72
65637;DHT22;52327;42.622;23.316;2023-06-24T11:37:43;31.88;42.84
65637;DHT22;52327;42.622;23.316;2023-06-24T11:40:09;31.64;43.62
65637;DHT22;52327;42.622;23.316;2023-06-24T11:42:41;31.66;43.04
65637;DHT22;52327;42.622;23.316;2023-06-24T11:45:11;31.47;43.17
65637;DHT22;52327;42.622;23.316;2023-06-24T11:47:38;31.47;43.54
65637;DHT22;52327;42.622;23.316;2023-06-24T11:50:05;31.59;43.05
65637;DHT22;52327;42.622;23.316;2023-06-24T11:52:43;32.07;41.73
65637;DHT22;52327;42.622;23.316;2023-06-24T11:55:16;32.55;40.98
65637;DHT22;52327;42.622;23.316;2023-06-24T11:57:59;32.84;40.70
65637;DHT22;52327;42.622;23.316;2023-06-24T12:00:34;33.04;40.94
65637;DHT22;52327;42.622;23.316;2023-06-24T12:03:02;33.29;40.23
65637;DHT22;52327;42.622;23.316;2023-06-24T12:05:33;33.87;39.90
65637;DHT22;52327;42.622;23.316;2023-06-24T12:08:05;33.97;39.08
65637;DHT22;52327;42.622;23.316;2023-06-24T12:10:31;33.74;39.26
65637;DHT22;52327;42.622;23.316;2023-06-24T12:12:59;33.54;39.27
65637;DHT22;52327;42.622;23.316;2023-06-24T12:15:24;33.43;39.61
65637;DHT22;52327;42.622;23.316;2023-06-24T12:17:50;33.30;39.89
65637;DHT22;52327;42.622;23.316;2023-06-24T12:20:16;33.34;40.71
65637;DHT22;52327;42.622;23.316;2023-06-24T12:22:43;33.20;41.55
65637;DHT22;52327;42.622;23.316;2023-06-24T12:25:09;33.09;42.51
65637;DHT22;52327;42.622;23.316;2023-06-24T12:27:35;32.83;43.37
65637;DHT22;52327;42.622;23.316;2023-06-24T12:30:00;32.73;43.07
65637;DHT22;52327;42.622;23.316;2023-06-24T12:32:26;32.53;42.59
65637;DHT22;52327;42.622;23.316;2023-06-24T12:34:52;32.43;42.28
65637;DHT22;52327;42.622;23.316;2023-06-24T12:37:18;32.28;42.90
65637;DHT22;52327;42.622;23.316;2023-06-24T12:39:44;32.04;43.56
65637;DHT22;52327;42.622;23.316;2023-06-24T12:42:10;31.97;44.48
65637;DHT22;52327;42.622;23.316;2023-06-24T12:44:35;31.85;44.36
65637;DHT22;52327;42.622;23.316;2023-06-24T12:47:01;31.56;44.66
65637;DHT22;52327;42.622;23.316;2023-06-24T12:49:27;31.43;45.01
65637;DHT22;52327;42.622;23.316;2023-06-24T12:51:53;31.41;46.17
65637;DHT22;52327;42.622;23.316;2023-06-24T12:54:18;31.22;46.34
65637;DHT22;52327;42.622;23.316;2023-06-24T12:56:44;30.92;46.81
65637;DHT22;52327;42.622;23.316;2023-06-24T12:59:09;30.69;46.67
65637;DHT22;52327;42.622;23.316;2023-06-24T13:01:35;30.39;49.14
65637;DHT22;52327;42.622;23.316;2023-06-24T13:04:00;30.32;49.94
65637;DHT22;52327;42.622;23.316;2023-06-24T13:06:26;30.23;50.63
65637;DHT22;52327;42.622;23.316;2023-06-24T13:08:51;30.00;50.82
65637;DHT22;52327;42.622;23.316;2023-06-24T13:11:18;29.88;51.78
65637;DHT22;52327;42.622;23.316;2023-06-24T13:13:43;29.76;52.05
65637;DHT22;52327;42.622;23.316;2023-06-24T13:16:09;29.55;52.64
65637;DHT22;52327;42.622;23.316;2023-06-24T13:18:35;29.37;52.84
65637;DHT22;52327;42.622;23.316;2023-06-24T13:21:00;29.15;53.35
65637;DHT22;52327;42.622;23.316;2023-06-24T13:23:26;28.77;55.68
65637;DHT22;52327;42.622;23.316;2023-06-24T13:25:51;27.72;59.19
65637;DHT22;52327;42.622;23.316;2023-06-24T13:28:16;27.00;60.92
65637;DHT22;52327;42.622;23.316;2023-06-24T13:30:42;26.74;61.41
65637;DHT22;52327;42.622;23.316;2023-06-24T13:33:07;26.74;62.39
65637;DHT22;52327;42.622;23.316;2023-06-24T13:35:33;26.22;63.23
65637;DHT22;52327;42.622;23.316;2023-06-24T13:37:59;25.99;63.49
65637;DHT22;52327;42.622;23.316;2023-06-24T13:40:24;26.03;60.94
65637;DHT22;52327;42.622;23.316;2023-06-24T13:42:50;25.60;61.49
65637;DHT22;52327;42.622;23.316;2023-06-24T13:45:16;25.04;60.91
65637;DHT22;52327;42.622;23.316;2023-06-24T13:47:41;24.93;59.27
65637;DHT22;52327;42.622;23.316;2023-06-24T13:50:07;24.77;59.14
65637;DHT22;52327;42.622;23.316;2023-06-24T13:52:33;24.56;55.98
65637;DHT22;52327;42.622;23.316;2023-06-24T13:54:58;24.63;56.11
65637;DHT22;52327;42.622;23.316;2023-06-24T13:57:24;24.70;54.28
65637;DHT22;52327;42.622;23.316;2023-06-24T13:59:49;24.68;54.98
65637;DHT22;52327;42.622;23.316;2023-06-24T14:02:17;24.53;55.86
65637;DHT22;52327;42.622;23.316;2023-06-24T14:04:44;24.51;56.23
65637;DHT22;52327;42.622;23.316;2023-06-24T14:07:10;24.58;56.52
65637;DHT22;52327;42.622;23.316;2023-06-24T14:09:37;24.43;57.52
65637;DHT22;52327;42.622;23.316;2023-06-24T14:12:03;24.01;59.71
65637;DHT22;52327;42.622;23.316;2023-06-24T14:14:28;23.88;60.78
65637;DHT22;52327;42.622;23.316;2023-06-24T14:16:54;24.14;61.71
65637;DHT22;52327;42.622;23.316;2023-06-24T14:19:19;24.29;67.75
65637;DHT22;52327;42.622;23.316;2023-06-24T14:21:45;23.27;68.89
65637;DHT22;52327;42.622;23.316;2023-06-24T14:24:10;22.98;74.26
65637;DHT22;52327;42.622;23.316;2023-06-24T14:26:36;22.52;76.74
65637;DHT22;52327;42.622;23.316;2023-06-24T14:29:02;22.43;74.81
65637;DHT22;52327;42.622;23.316;2023-06-24T14:31:28;22.31;72.93
65637;DHT22;52327;42.622;23.316;2023-06-24T14:33:53;22.43;78.85
65637;DHT22;52327;42.622;23.316;2023-06-24T14:36:19;22.58;79.22
65637;DHT22;52327;42.622;23.316;2023-06-24T14:38:44;22.73;75.87
65637;DHT22;52327;42.622;23.316;2023-06-24T14:41:10;23.07;76.80
65637;DHT22;52327;42.622;23.316;2023-06-24T14:43:35;23.37;75.56
65637;DHT22;52327;42.622;23.316;2023-06-24T14:46:01;23.68;74.61
65637;DHT22;52327;42.622;23.316;2023-06-24T14:48:27;23.97;73.62
65637;DHT22;52327;42.622;23.316;2023-06-24T14:50:52;24.25;72.00
65637;DHT22;52327;42.622;23.316;2023-06-24T14:53:18;24.53;71.26
65637;DHT22;52327;42.622;23.316;2023-06-24T14:55:45;24.72;71.47
65637;DHT22;52327;42.622;23.316;2023-06-24T14:58:10;25.02;69.01
65637;DHT22;52327;42.622;23.316;2023-06-24T15:00:36;25.23;67.06
65637;DHT22;52327;42.622;23.316;2023-06-24T15:03:01;25.14;69.05
65637;DHT22;52327;42.622;23.316;2023-06-24T15:05:27;25.19;68.21
65637;DHT22;52327;42.622;23.316;2023-06-24T15:07:52;25.16;69.08
65637;DHT22;52327;42.622;23.316;2023-06-24T15:10:17;25.17;70.27
65637;DHT22;52327;42.622;23.316;2023-06-24T15:12:43;25.20;68.52
65637;DHT22;52327;42.622;23.316;2023-06-24T15:15:09;25.16;68.45
65637;DHT22;52327;42.622;23.316;2023-06-24T15:17:35;25.27;66.25
65637;DHT22;52327;42.622;23.316;2023-06-24T15:20:06;25.34;64.09
65637;DHT22;52327;42.622;23.316;2023-06-24T15:22:32;25.35;63.34
65637;DHT22;52327;42.622;23.316;2023-06-24T15:24:57;25.31;63.24
65637;DHT22;52327;42.622;23.316;2023-06-24T15:27:23;25.24;61.12
65637;DHT22;52327;42.622;23.316;2023-06-24T15:29:48;25.11;61.91
65637;DHT22;52327;42.622;23.316;2023-06-24T15:32:14;25.02;62.45
65637;DHT22;52327;42.622;23.316;2023-06-24T15:34:39;24.96;63.00
65637;DHT22;52327;42.622;23.316;2023-06-24T15:37:05;25.07;62.68
65637;DHT22;52327;42.622;23.316;2023-06-24T15:39:30;25.10;61.86
65637;DHT22;52327;42.622;23.316;2023-06-24T15:41:56;25.10;61.52
65637;DHT22;52327;42.622;23.316;2023-06-24T15:44:21;25.06;61.65